createdAt,value
2018-07-17T00:02:31.649Z,77.53
2018-07-17T00:07:28.466Z,77.44
2018-07-17T00:12:23.791Z,78.59
2018-07-17T00:17:19.549Z,78.98
2018-07-17T00:22:16.323Z,78.31
2018-07-17T00:27:11.866Z,79.08
2018-07-17T00:32:07.800Z,79.46
2018-07-17T00:37:03.986Z,80.58
2018-07-17T00:41:59.718Z,80.77
2018-07-17T00:46:55.892Z,80.96
2018-07-17T00:51:52.807Z,80.96
2018-07-17T00:56:48.545Z,80.23
2018-07-17T01:01:44.571Z,81.16
2018-07-17T01:06:41.608Z,80.87
2018-07-17T01:11:37.210Z,80.68
2018-07-17T01:16:34.003Z,81.45
2018-07-17T01:21:29.656Z,82.41
2018-07-17T01:26:25.175Z,82.60
2018-07-17T01:31:21.021Z,83.04
2018-07-17T01:36:18.062Z,83.62
2018-07-17T01:41:13.800Z,85.25
2018-07-17T01:46:09.497Z,85.83
2018-07-17T01:51:06.630Z,86.41
2018-07-17T01:56:02.237Z,87.76
2018-07-17T02:00:59.223Z,88.00
2018-07-17T02:05:54.880Z,86.60
2018-07-17T02:10:50.820Z,87.95
2018-07-17T02:15:46.736Z,88.24
2018-07-17T02:20:42.768Z,88.04
2018-07-17T02:25:38.400Z,88.96
2018-07-17T02:30:34.240Z,89.73
2018-07-17T02:35:29.909Z,90.02
2018-07-17T02:40:26.729Z,91.52
2018-07-17T02:45:22.235Z,91.90
2018-07-17T02:50:18.043Z,91.36
2018-07-17T02:55:13.692Z,90.98
2018-07-17T03:00:09.974Z,90.79
2018-07-17T03:05:05.924Z,90.31
2018-07-17T03:10:01.872Z,89.73
2018-07-17T03:14:58.635Z,91.03
2018-07-17T03:19:55.148Z,91.99
2018-07-17T03:24:51.703Z,95.55
2018-07-17T03:29:47.423Z,95.12
2018-07-17T03:34:43.224Z,92.86
2018-07-17T03:39:39.182Z,94.40
2018-07-17T03:44:36.364Z,93.44
2018-07-17T03:49:32.313Z,95.26
2018-07-17T03:54:28.222Z,96.90
2018-07-17T03:59:24.119Z,99.99
2018-07-17T04:04:19.940Z,99.99
2018-07-17T04:09:16.547Z,99.99
2018-07-17T04:14:13.055Z,99.99
2018-07-17T04:19:09.181Z,99.99
2018-07-17T04:24:05.801Z,99.99
2018-07-17T04:29:03.228Z,99.99
2018-07-17T04:33:59.612Z,99.99
2018-07-17T04:38:56.362Z,97.09
2018-07-17T04:43:53.512Z,90.78
2018-07-17T04:48:50.787Z,86.24
2018-07-17T04:53:48.413Z,81.11
2018-07-17T04:58:45.080Z,74.62
2018-07-17T05:03:41.429Z,71.56
2018-07-17T05:08:38.122Z,70.08
2018-07-17T05:13:35.047Z,66.60
2018-07-17T05:18:32.859Z,62.16
2018-07-17T05:23:28.740Z,61.00
2018-07-17T05:28:25.007Z,62.29
2018-07-17T05:33:20.426Z,67.95
2018-07-17T05:38:15.862Z,69.21
2018-07-17T05:43:11.830Z,64.53
2018-07-17T05:48:08.779Z,60.32
2018-07-17T05:53:06.356Z,58.58
2018-07-17T05:58:02.224Z,59.06
2018-07-17T06:02:58.165Z,60.17
2018-07-17T06:07:53.531Z,61.62
2018-07-17T06:12:48.873Z,63.53
2018-07-17T06:17:45.792Z,66.37
2018-07-17T06:22:41.078Z,66.85
2018-07-17T06:27:36.729Z,69.82
2018-07-17T06:32:33.541Z,71.46
2018-07-17T06:37:29.651Z,71.66
2018-07-17T06:42:25.603Z,70.50
2018-07-17T06:47:22.492Z,67.88
2018-07-17T06:52:19.233Z,66.85
2018-07-17T06:57:15.000Z,66.85
2018-07-17T07:02:10.835Z,67.72
2018-07-17T07:07:06.763Z,66.66
2018-07-17T07:12:03.672Z,66.56
2018-07-17T07:16:59.457Z,68.11
2018-07-17T07:21:55.428Z,67.24
2018-07-17T07:26:51.520Z,67.08
2018-07-17T07:31:47.484Z,65.82
2018-07-17T07:36:43.271Z,65.82
2018-07-17T07:41:39.323Z,63.04
2018-07-17T07:46:35.989Z,62.49
2018-07-17T07:51:33.201Z,61.72
2018-07-17T07:56:29.383Z,60.23
2018-07-17T08:01:30.623Z,54.89
2018-07-17T08:06:30.169Z,49.66
2018-07-17T08:11:27.941Z,45.94
2018-07-17T08:16:25.672Z,44.54
2018-07-17T08:21:22.926Z,43.15
2018-07-17T08:26:21.034Z,43.63
2018-07-17T08:31:18.604Z,41.96
2018-07-17T08:36:16.162Z,40.31
2018-07-17T08:41:12.675Z,39.47
2018-07-17T08:46:09.290Z,39.82
2018-07-17T08:51:06.848Z,40.47
2018-07-17T08:56:03.780Z,40.90
2018-07-17T09:00:59.269Z,40.21
2018-07-17T09:05:56.009Z,40.27
2018-07-17T09:10:53.398Z,39.84
2018-07-17T09:15:49.482Z,40.09
2018-07-17T09:20:46.741Z,38.92
2018-07-17T09:25:43.107Z,37.82
2018-07-17T09:30:39.298Z,36.82
2018-07-17T09:35:35.342Z,38.74
2018-07-17T09:40:31.599Z,38.82
2018-07-17T09:45:27.844Z,37.80
2018-07-17T09:50:24.043Z,40.19
2018-07-17T09:55:21.016Z,38.76
2018-07-17T10:00:17.096Z,36.63
2018-07-17T10:05:13.754Z,35.95
2018-07-17T10:10:10.116Z,35.87
2018-07-17T10:15:05.320Z,36.49
2018-07-17T10:20:01.833Z,36.39
2018-07-17T10:24:58.255Z,35.52
2018-07-17T10:29:54.591Z,34.75
2018-07-17T10:34:52.220Z,33.95
2018-07-17T10:39:46.405Z,36.55
2018-07-17T10:44:43.136Z,36.09
2018-07-17T10:49:40.220Z,35.44
2018-07-17T10:54:37.109Z,37.05
2018-07-17T10:59:34.374Z,36.09
2018-07-17T11:04:30.624Z,35.49
2018-07-17T11:09:26.885Z,36.19
2018-07-17T11:14:23.256Z,35.02
2018-07-17T11:19:19.832Z,31.79
2018-07-17T11:24:16.506Z,32.79
2018-07-17T11:29:13.948Z,33.29
2018-07-17T11:34:10.643Z,33.49
2018-07-17T11:39:07.236Z,33.58
2018-07-17T11:44:03.932Z,32.62
2018-07-17T11:48:56.439Z,35.08
2018-07-17T11:53:53.788Z,33.89
2018-07-17T11:58:51.474Z,33.28
2018-07-17T12:03:48.244Z,33.31
2018-07-17T12:08:44.896Z,32.65
2018-07-17T12:13:40.311Z,34.64
2018-07-17T12:18:38.076Z,35.03
2018-07-17T12:23:34.379Z,34.67
2018-07-17T12:28:30.882Z,34.47
2018-07-17T12:33:27.043Z,35.54
2018-07-17T12:38:22.386Z,35.14
2018-07-17T12:43:17.123Z,37.86
2018-07-17T12:48:13.962Z,37.48
2018-07-17T12:53:09.325Z,36.98
2018-07-17T12:58:06.273Z,35.23
2018-07-17T13:03:03.862Z,34.00
2018-07-17T13:08:00.901Z,34.56
2018-07-17T13:12:56.373Z,33.95
2018-07-17T13:17:53.222Z,33.95
2018-07-17T13:22:48.387Z,34.25
2018-07-17T13:27:43.072Z,34.44
2018-07-17T13:32:39.546Z,32.59
2018-07-17T13:37:35.677Z,32.71
2018-07-17T13:42:31.600Z,33.69
2018-07-17T13:47:27.058Z,33.33
2018-07-17T13:52:23.020Z,34.03
2018-07-17T13:57:19.387Z,34.00
2018-07-17T14:02:15.363Z,35.14
2018-07-17T14:07:11.009Z,35.48
2018-07-17T14:12:06.702Z,35.58
2018-07-17T14:17:02.127Z,37.32
2018-07-17T14:21:58.088Z,38.87
2018-07-17T14:26:52.865Z,38.14
2018-07-17T14:31:49.227Z,39.31
2018-07-17T14:36:44.187Z,41.17
2018-07-17T14:41:39.936Z,40.88
2018-07-17T14:46:35.543Z,40.39
2018-07-17T14:51:31.406Z,40.78
2018-07-17T14:56:27.383Z,41.66
2018-07-17T15:01:23.374Z,41.54
2018-07-17T15:06:19.619Z,41.73
2018-07-17T15:11:15.689Z,42.51
2018-07-17T15:16:12.765Z,42.61
2018-07-17T15:21:08.449Z,42.71
2018-07-17T15:26:04.640Z,42.51
2018-07-17T15:31:00.653Z,42.41
2018-07-17T15:35:56.580Z,42.98
2018-07-17T15:40:52.599Z,43.19
2018-07-17T15:45:49.169Z,42.32
2018-07-17T15:50:44.885Z,43.37
2018-07-17T15:55:40.851Z,45.12
2018-07-17T16:00:36.901Z,42.59
2018-07-17T16:05:32.910Z,41.61
2018-07-17T16:10:28.707Z,42.59
2018-07-17T16:15:24.646Z,42.38
2018-07-17T16:20:20.484Z,41.30
2018-07-17T16:25:16.600Z,42.76
2018-07-17T16:30:12.813Z,43.52
2018-07-17T16:35:08.840Z,43.62
2018-07-17T16:40:04.788Z,44.40
2018-07-17T16:45:00.761Z,45.37
2018-07-17T16:49:56.857Z,45.76
2018-07-17T16:54:52.671Z,46.51
2018-07-17T16:59:49.723Z,46.42
2018-07-17T17:04:46.475Z,45.94
2018-07-17T17:09:43.391Z,46.32
2018-07-17T17:14:40.120Z,46.50
2018-07-17T17:19:37.088Z,47.86
2018-07-17T17:24:32.752Z,49.22
2018-07-17T17:29:29.629Z,49.61
2018-07-17T17:34:26.488Z,49.90
2018-07-17T17:39:22.307Z,49.58
2018-07-17T17:44:17.999Z,50.16
2018-07-17T17:49:14.993Z,50.07
2018-07-17T17:54:10.598Z,50.46
2018-07-17T17:59:06.713Z,50.85
2018-07-17T18:04:03.199Z,51.11
2018-07-17T18:08:59.035Z,51.99
2018-07-17T18:13:55.983Z,51.31
2018-07-17T18:18:51.716Z,51.38
2018-07-17T18:23:47.607Z,50.89
2018-07-17T18:28:43.450Z,51.18
2018-07-17T18:33:40.534Z,52.15
2018-07-17T18:38:36.220Z,52.15
2018-07-17T18:43:32.197Z,52.94
2018-07-17T18:48:29.233Z,52.33
2018-07-17T18:53:24.889Z,53.30
2018-07-17T18:58:21.154Z,56.21
2018-07-17T19:03:18.004Z,58.51
2018-07-17T19:08:13.428Z,62.46
2018-07-17T19:13:09.403Z,64.47
2018-07-17T19:18:05.518Z,65.34
2018-07-17T19:23:02.383Z,66.75
2018-07-17T19:27:58.902Z,66.75
2018-07-17T19:32:54.500Z,67.98
2018-07-17T19:37:50.433Z,67.98
2018-07-17T19:42:47.420Z,68.66
2018-07-17T19:47:43.080Z,69.21
2018-07-17T19:52:38.924Z,68.82
2018-07-17T19:57:34.901Z,69.46
2018-07-17T20:02:30.614Z,70.62
2018-07-17T20:07:26.582Z,70.59
2018-07-17T20:12:22.335Z,71.56
2018-07-17T20:17:19.232Z,72.62
2018-07-17T20:22:16.201Z,73.16
2018-07-17T20:27:11.721Z,73.74
2018-07-17T20:32:07.429Z,74.38
2018-07-17T20:37:03.459Z,74.58
2018-07-17T20:41:59.494Z,75.51
2018-07-17T20:46:55.360Z,76.09
2018-07-17T20:51:51.173Z,77.15
2018-07-17T20:56:47.230Z,78.08
2018-07-17T21:01:43.113Z,78.17
2018-07-17T21:06:39.667Z,78.08
2018-07-17T21:11:35.958Z,79.00
2018-07-17T21:16:31.889Z,78.81
2018-07-17T21:21:27.876Z,78.81
2018-07-17T21:26:24.929Z,79.29
2018-07-17T21:31:20.444Z,80.41
2018-07-17T21:36:16.242Z,80.02
2018-07-17T21:41:13.192Z,81.33
2018-07-17T21:46:09.195Z,80.85
2018-07-17T21:51:04.992Z,80.85
2018-07-17T21:56:00.851Z,82.45
2018-07-17T22:00:56.697Z,82.06
2018-07-17T22:05:52.352Z,82.93
2018-07-17T22:10:48.490Z,82.93
2018-07-17T22:15:44.709Z,82.29
2018-07-17T22:20:41.538Z,83.61
2018-07-17T22:25:37.723Z,85.49
2018-07-17T22:30:35.197Z,85.30
2018-07-17T22:35:30.635Z,85.30
2018-07-17T22:40:26.645Z,86.02
2018-07-17T22:45:23.229Z,85.10
2018-07-17T22:50:19.246Z,84.91
2018-07-17T22:55:15.402Z,84.48
2018-07-17T23:00:12.304Z,84.29
2018-07-17T23:05:07.776Z,84.58
2018-07-17T23:10:03.969Z,85.74
2018-07-17T23:14:59.812Z,85.88
2018-07-17T23:19:56.042Z,86.94
2018-07-17T23:24:51.966Z,85.64
2018-07-17T23:29:48.224Z,86.56
2018-07-17T23:34:44.180Z,87.71
2018-07-17T23:39:40.902Z,89.50
2018-07-17T23:44:37.159Z,88.57
2018-07-17T23:49:32.661Z,89.44
2018-07-17T23:54:29.389Z,89.92
2018-07-17T23:59:24.893Z,90.45
